sensor_id;sensor_type;location;lat;lon;timestamp;P1;durP1;ratioP1;P2;durP2;ratioP2
11008;SDS011;5557;51.670;7.788;2022-07-29T00:01:03;11.93;;;1.90;;
11008;SDS011;5557;51.670;7.788;2022-07-29T00:03:30;3.13;;;1.60;;
11008;SDS011;5557;51.670;7.788;2022-07-29T00:05:57;1.87;;;1.20;;
11008;SDS011;5557;51.670;7.788;2022-07-29T00:08:26;5.47;;;1.23;;
11008;SDS011;5557;51.670;7.788;2022-07-29T00:10:53;3.50;;;1.60;;
11008;SDS011;5557;51.670;7.788;2022-07-29T00:13:20;1.20;;;1.03;;
11008;SDS011;5557;51.670;7.788;2022-07-29T00:15:57;9.60;;;1.60;;
11008;SDS011;5557;51.670;7.788;2022-07-29T00:18:30;5.33;;;2.00;;
11008;SDS011;5557;51.670;7.788;2022-07-29T00:20:57;5.63;;;1.87;;
11008;SDS011;5557;51.670;7.788;2022-07-29T00:23:24;3.70;;;2.07;;
11008;SDS011;5557;51.670;7.788;2022-07-29T00:25:52;2.70;;;1.63;;
11008;SDS011;5557;51.670;7.788;2022-07-29T00:28:19;3.63;;;1.70;;
11008;SDS011;5557;51.670;7.788;2022-07-29T00:30:46;4.43;;;1.87;;
11008;SDS011;5557;51.670;7.788;2022-07-29T00:33:13;5.77;;;1.40;;
11008;SDS011;5557;51.670;7.788;2022-07-29T00:35:40;3.50;;;1.60;;
11008;SDS011;5557;51.670;7.788;2022-07-29T00:38:14;5.13;;;1.37;;
11008;SDS011;5557;51.670;7.788;2022-07-29T00:40:42;2.83;;;1.20;;
11008;SDS011;5557;51.670;7.788;2022-07-29T00:43:11;2.70;;;1.50;;
11008;SDS011;5557;51.670;7.788;2022-07-29T00:45:39;4.63;;;2.00;;
11008;SDS011;5557;51.670;7.788;2022-07-29T00:48:09;14.47;;;1.43;;
11008;SDS011;5557;51.670;7.788;2022-07-29T00:50:37;6.77;;;1.30;;
11008;SDS011;5557;51.670;7.788;2022-07-29T00:53:05;1.83;;;1.00;;
11008;SDS011;5557;51.670;7.788;2022-07-29T00:55:36;1.97;;;0.90;;
11008;SDS011;5557;51.670;7.788;2022-07-29T00:58:03;3.83;;;1.20;;
11008;SDS011;5557;51.670;7.788;2022-07-29T01:00:32;6.57;;;1.10;;
11008;SDS011;5557;51.670;7.788;2022-07-29T01:03:00;2.23;;;2.00;;
11008;SDS011;5557;51.670;7.788;2022-07-29T01:05:29;1.93;;;1.23;;
11008;SDS011;5557;51.670;7.788;2022-07-29T01:08:16;5.93;;;1.50;;
11008;SDS011;5557;51.670;7.788;2022-07-29T01:10:44;3.53;;;1.60;;
11008;SDS011;5557;51.670;7.788;2022-07-29T01:13:13;6.57;;;3.00;;
11008;SDS011;5557;51.670;7.788;2022-07-29T01:15:47;6.77;;;1.50;;
11008;SDS011;5557;51.670;7.788;2022-07-29T01:18:22;2.13;;;1.60;;
11008;SDS011;5557;51.670;7.788;2022-07-29T01:21:10;2.07;;;1.40;;
11008;SDS011;5557;51.670;7.788;2022-07-29T01:27:13;5.90;;;1.53;;
11008;SDS011;5557;51.670;7.788;2022-07-29T01:29:57;2.60;;;1.30;;
11008;SDS011;5557;51.670;7.788;2022-07-29T01:32:29;4.03;;;1.30;;
11008;SDS011;5557;51.670;7.788;2022-07-29T01:35:04;3.43;;;1.40;;
11008;SDS011;5557;51.670;7.788;2022-07-29T01:38:09;9.43;;;1.23;;
11008;SDS011;5557;51.670;7.788;2022-07-29T01:43:42;7.00;;;1.60;;
11008;SDS011;5557;51.670;7.788;2022-07-29T01:46:17;5.60;;;1.10;;
11008;SDS011;5557;51.670;7.788;2022-07-29T01:48:52;12.73;;;1.30;;
11008;SDS011;5557;51.670;7.788;2022-07-29T01:51:33;4.03;;;1.50;;
11008;SDS011;5557;51.670;7.788;2022-07-29T01:54:12;5.67;;;1.67;;
11008;SDS011;5557;51.670;7.788;2022-07-29T01:56:43;1.67;;;1.17;;
11008;SDS011;5557;51.670;7.788;2022-07-29T01:59:13;1.30;;;1.10;;
11008;SDS011;5557;51.670;7.788;2022-07-29T02:01:42;3.77;;;1.40;;
11008;SDS011;5557;51.670;7.788;2022-07-29T02:04:10;3.43;;;1.33;;
11008;SDS011;5557;51.670;7.788;2022-07-29T02:06:55;1.93;;;1.57;;
11008;SDS011;5557;51.670;7.788;2022-07-29T02:09:26;1.20;;;1.10;;
11008;SDS011;5557;51.670;7.788;2022-07-29T02:11:55;2.60;;;1.40;;
11008;SDS011;5557;51.670;7.788;2022-07-29T02:14:25;2.37;;;1.30;;
11008;SDS011;5557;51.670;7.788;2022-07-29T02:16:54;3.03;;;1.20;;
11008;SDS011;5557;51.670;7.788;2022-07-29T02:19:24;2.10;;;1.23;;
11008;SDS011;5557;51.670;7.788;2022-07-29T02:21:53;7.73;;;1.60;;
11008;SDS011;5557;51.670;7.788;2022-07-29T02:24:22;2.77;;;1.40;;
11008;SDS011;5557;51.670;7.788;2022-07-29T02:26:51;9.50;;;1.17;;
11008;SDS011;5557;51.670;7.788;2022-07-29T02:29:21;2.60;;;1.43;;
11008;SDS011;5557;51.670;7.788;2022-07-29T02:31:51;2.10;;;1.20;;
11008;SDS011;5557;51.670;7.788;2022-07-29T02:34:19;3.07;;;1.13;;
11008;SDS011;5557;51.670;7.788;2022-07-29T02:36:47;6.60;;;1.20;;
11008;SDS011;5557;51.670;7.788;2022-07-29T02:39:15;2.90;;;1.87;;
11008;SDS011;5557;51.670;7.788;2022-07-29T02:41:44;5.20;;;1.67;;
11008;SDS011;5557;51.670;7.788;2022-07-29T02:44:17;3.43;;;1.73;;
11008;SDS011;5557;51.670;7.788;2022-07-29T02:46:50;1.60;;;1.20;;
11008;SDS011;5557;51.670;7.788;2022-07-29T02:52:03;2.17;;;1.50;;
11008;SDS011;5557;51.670;7.788;2022-07-29T02:54:44;4.77;;;1.57;;
11008;SDS011;5557;51.670;7.788;2022-07-29T02:57:36;2.17;;;1.30;;
11008;SDS011;5557;51.670;7.788;2022-07-29T03:00:20;1.30;;;1.20;;
11008;SDS011;5557;51.670;7.788;2022-07-29T03:02:50;2.40;;;1.30;;
11008;SDS011;5557;51.670;7.788;2022-07-29T03:05:20;2.13;;;0.93;;
11008;SDS011;5557;51.670;7.788;2022-07-29T03:07:52;6.67;;;1.90;;
11008;SDS011;5557;51.670;7.788;2022-07-29T03:10:23;10.73;;;1.50;;
11008;SDS011;5557;51.670;7.788;2022-07-29T03:12:52;5.93;;;1.20;;
11008;SDS011;5557;51.670;7.788;2022-07-29T03:15:21;4.40;;;1.33;;
11008;SDS011;5557;51.670;7.788;2022-07-29T03:17:50;1.10;;;0.90;;
11008;SDS011;5557;51.670;7.788;2022-07-29T03:20:18;2.40;;;1.10;;
11008;SDS011;5557;51.670;7.788;2022-07-29T03:22:45;1.93;;;1.30;;
11008;SDS011;5557;51.670;7.788;2022-07-29T03:25:17;5.40;;;1.50;;
11008;SDS011;5557;51.670;7.788;2022-07-29T03:27:46;2.80;;;2.60;;
11008;SDS011;5557;51.670;7.788;2022-07-29T03:30:14;6.53;;;2.30;;
11008;SDS011;5557;51.670;7.788;2022-07-29T03:32:47;1.67;;;1.40;;
11008;SDS011;5557;51.670;7.788;2022-07-29T03:35:17;3.87;;;1.67;;
11008;SDS011;5557;51.670;7.788;2022-07-29T03:37:45;4.50;;;2.00;;
11008;SDS011;5557;51.670;7.788;2022-07-29T03:40:14;7.70;;;1.90;;
11008;SDS011;5557;51.670;7.788;2022-07-29T03:42:46;4.07;;;1.27;;
11008;SDS011;5557;51.670;7.788;2022-07-29T03:45:15;6.37;;;2.00;;
11008;SDS011;5557;51.670;7.788;2022-07-29T03:47:48;7.53;;;1.93;;
11008;SDS011;5557;51.670;7.788;2022-07-29T03:50:25;11.73;;;1.90;;
11008;SDS011;5557;51.670;7.788;2022-07-29T03:52:53;2.60;;;1.20;;
11008;SDS011;5557;51.670;7.788;2022-07-29T03:55:20;2.13;;;1.40;;
11008;SDS011;5557;51.670;7.788;2022-07-29T03:57:48;3.87;;;1.20;;
11008;SDS011;5557;51.670;7.788;2022-07-29T04:00:16;3.60;;;1.20;;
11008;SDS011;5557;51.670;7.788;2022-07-29T04:02:44;5.53;;;1.77;;
11008;SDS011;5557;51.670;7.788;2022-07-29T04:05:15;2.47;;;1.50;;
11008;SDS011;5557;51.670;7.788;2022-07-29T04:07:46;5.40;;;1.30;;
11008;SDS011;5557;51.670;7.788;2022-07-29T04:10:13;2.00;;;1.50;;
11008;SDS011;5557;51.670;7.788;2022-07-29T04:12:56;2.07;;;1.60;;
11008;SDS011;5557;51.670;7.788;2022-07-29T04:15:24;2.43;;;1.50;;
11008;SDS011;5557;51.670;7.788;2022-07-29T04:17:56;1.40;;;1.30;;
11008;SDS011;5557;51.670;7.788;2022-07-29T04:20:23;4.80;;;1.57;;
11008;SDS011;5557;51.670;7.788;2022-07-29T04:22:50;2.90;;;1.70;;
11008;SDS011;5557;51.670;7.788;2022-07-29T04:25:17;3.83;;;1.73;;
11008;SDS011;5557;51.670;7.788;2022-07-29T04:27:44;4.17;;;1.40;;
11008;SDS011;5557;51.670;7.788;2022-07-29T04:30:30;3.40;;;1.20;;
11008;SDS011;5557;51.670;7.788;2022-07-29T04:32:58;2.23;;;1.17;;
11008;SDS011;5557;51.670;7.788;2022-07-29T04:35:27;6.13;;;1.63;;
11008;SDS011;5557;51.670;7.788;2022-07-29T04:38:04;8.40;;;1.43;;
11008;SDS011;5557;51.670;7.788;2022-07-29T04:40:32;5.27;;;1.53;;
11008;SDS011;5557;51.670;7.788;2022-07-29T04:43:03;2.90;;;1.10;;
11008;SDS011;5557;51.670;7.788;2022-07-29T04:45:31;4.17;;;1.20;;
11008;SDS011;5557;51.670;7.788;2022-07-29T04:47:58;4.80;;;1.80;;
11008;SDS011;5557;51.670;7.788;2022-07-29T04:50:25;3.73;;;1.47;;
11008;SDS011;5557;51.670;7.788;2022-07-29T04:52:52;7.87;;;2.40;;
11008;SDS011;5557;51.670;7.788;2022-07-29T04:55:19;8.53;;;1.73;;
11008;SDS011;5557;51.670;7.788;2022-07-29T04:57:46;16.03;;;2.60;;
11008;SDS011;5557;51.670;7.788;2022-07-29T05:00:13;3.97;;;1.43;;
11008;SDS011;5557;51.670;7.788;2022-07-29T05:02:40;2.13;;;1.50;;
11008;SDS011;5557;51.670;7.788;2022-07-29T05:05:07;5.77;;;1.60;;
11008;SDS011;5557;51.670;7.788;2022-07-29T05:07:34;7.17;;;2.00;;
11008;SDS011;5557;51.670;7.788;2022-07-29T05:10:02;11.20;;;2.17;;
11008;SDS011;5557;51.670;7.788;2022-07-29T05:12:29;3.20;;;1.67;;
11008;SDS011;5557;51.670;7.788;2022-07-29T05:14:56;3.13;;;1.80;;
11008;SDS011;5557;51.670;7.788;2022-07-29T05:17:23;3.40;;;1.30;;
11008;SDS011;5557;51.670;7.788;2022-07-29T05:19:50;4.73;;;2.53;;
11008;SDS011;5557;51.670;7.788;2022-07-29T05:22:20;4.33;;;1.40;;
11008;SDS011;5557;51.670;7.788;2022-07-29T05:24:48;4.93;;;1.87;;
11008;SDS011;5557;51.670;7.788;2022-07-29T05:27:14;3.20;;;1.00;;
11008;SDS011;5557;51.670;7.788;2022-07-29T05:29:41;4.03;;;1.60;;
11008;SDS011;5557;51.670;7.788;2022-07-29T05:32:11;7.17;;;1.60;;
11008;SDS011;5557;51.670;7.788;2022-07-29T05:34:39;8.93;;;1.80;;
11008;SDS011;5557;51.670;7.788;2022-07-29T05:37:16;9.70;;;1.70;;
11008;SDS011;5557;51.670;7.788;2022-07-29T05:39:44;9.10;;;2.47;;
11008;SDS011;5557;51.670;7.788;2022-07-29T05:42:15;15.63;;;2.07;;
11008;SDS011;5557;51.670;7.788;2022-07-29T05:44:42;6.43;;;1.87;;
11008;SDS011;5557;51.670;7.788;2022-07-29T05:47:09;4.70;;;1.67;;
11008;SDS011;5557;51.670;7.788;2022-07-29T05:49:36;4.50;;;1.80;;
11008;SDS011;5557;51.670;7.788;2022-07-29T05:52:03;2.90;;;1.67;;
11008;SDS011;5557;51.670;7.788;2022-07-29T05:54:30;14.43;;;1.53;;
11008;SDS011;5557;51.670;7.788;2022-07-29T05:56:57;7.57;;;1.77;;
11008;SDS011;5557;51.670;7.788;2022-07-29T05:59:24;5.43;;;1.90;;
11008;SDS011;5557;51.670;7.788;2022-07-29T06:01:55;5.17;;;1.50;;
11008;SDS011;5557;51.670;7.788;2022-07-29T06:04:23;3.83;;;1.60;;
11008;SDS011;5557;51.670;7.788;2022-07-29T06:06:51;3.43;;;1.40;;
11008;SDS011;5557;51.670;7.788;2022-07-29T06:09:17;2.50;;;1.43;;
11008;SDS011;5557;51.670;7.788;2022-07-29T06:11:45;5.00;;;3.17;;
11008;SDS011;5557;51.670;7.788;2022-07-29T06:14:12;3.40;;;1.50;;
11008;SDS011;5557;51.670;7.788;2022-07-29T06:16:40;4.00;;;1.60;;
11008;SDS011;5557;51.670;7.788;2022-07-29T06:19:07;7.03;;;2.20;;
11008;SDS011;5557;51.670;7.788;2022-07-29T06:21:34;1.93;;;1.37;;
11008;SDS011;5557;51.670;7.788;2022-07-29T06:24:07;2.53;;;1.23;;
11008;SDS011;5557;51.670;7.788;2022-07-29T06:26:34;6.93;;;2.10;;
11008;SDS011;5557;51.670;7.788;2022-07-29T06:29:05;1.93;;;1.83;;
11008;SDS011;5557;51.670;7.788;2022-07-29T06:31:33;2.13;;;1.40;;
11008;SDS011;5557;51.670;7.788;2022-07-29T06:34:00;1.93;;;1.63;;
11008;SDS011;5557;51.670;7.788;2022-07-29T06:36:28;2.90;;;1.73;;
11008;SDS011;5557;51.670;7.788;2022-07-29T06:38:55;3.40;;;1.77;;
11008;SDS011;5557;51.670;7.788;2022-07-29T06:41:23;7.60;;;1.57;;
11008;SDS011;5557;51.670;7.788;2022-07-29T06:43:50;13.83;;;2.10;;
11008;SDS011;5557;51.670;7.788;2022-07-29T06:46:22;6.13;;;1.73;;
11008;SDS011;5557;51.670;7.788;2022-07-29T06:48:49;3.43;;;2.00;;
11008;SDS011;5557;51.670;7.788;2022-07-29T06:51:18;3.67;;;1.27;;
11008;SDS011;5557;51.670;7.788;2022-07-29T06:53:49;7.80;;;1.37;;
11008;SDS011;5557;51.670;7.788;2022-07-29T06:56:28;2.10;;;1.50;;
11008;SDS011;5557;51.670;7.788;2022-07-29T06:59:04;18.80;;;2.07;;
11008;SDS011;5557;51.670;7.788;2022-07-29T07:01:36;2.07;;;1.43;;
11008;SDS011;5557;51.670;7.788;2022-07-29T07:04:04;6.70;;;2.17;;
11008;SDS011;5557;51.670;7.788;2022-07-29T07:06:32;5.93;;;1.90;;
11008;SDS011;5557;51.670;7.788;2022-07-29T07:08:59;10.73;;;2.10;;
11008;SDS011;5557;51.670;7.788;2022-07-29T07:11:26;1.67;;;1.20;;
11008;SDS011;5557;51.670;7.788;2022-07-29T07:13:53;12.50;;;2.03;;
11008;SDS011;5557;51.670;7.788;2022-07-29T07:16:27;5.33;;;1.80;;
11008;SDS011;5557;51.670;7.788;2022-07-29T07:18:54;7.80;;;1.83;;
11008;SDS011;5557;51.670;7.788;2022-07-29T07:21:21;6.37;;;1.50;;
11008;SDS011;5557;51.670;7.788;2022-07-29T07:23:48;3.10;;;0.93;;
11008;SDS011;5557;51.670;7.788;2022-07-29T07:26:15;1.70;;;1.13;;
11008;SDS011;5557;51.670;7.788;2022-07-29T07:28:42;3.93;;;1.60;;
11008;SDS011;5557;51.670;7.788;2022-07-29T07:31:09;1.23;;;1.10;;
11008;SDS011;5557;51.670;7.788;2022-07-29T07:33:37;3.73;;;1.33;;
11008;SDS011;5557;51.670;7.788;2022-07-29T07:36:04;3.10;;;1.30;;
11008;SDS011;5557;51.670;7.788;2022-07-29T07:38:32;2.90;;;1.30;;
11008;SDS011;5557;51.670;7.788;2022-07-29T07:41:01;5.70;;;1.57;;
11008;SDS011;5557;51.670;7.788;2022-07-29T07:43:28;7.83;;;1.60;;
11008;SDS011;5557;51.670;7.788;2022-07-29T07:45:55;10.43;;;1.53;;
11008;SDS011;5557;51.670;7.788;2022-07-29T07:48:22;10.90;;;1.47;;
11008;SDS011;5557;51.670;7.788;2022-07-29T07:50:49;8.33;;;1.70;;
11008;SDS011;5557;51.670;7.788;2022-07-29T07:53:17;8.20;;;1.03;;
11008;SDS011;5557;51.670;7.788;2022-07-29T07:55:44;9.30;;;1.93;;
11008;SDS011;5557;51.670;7.788;2022-07-29T07:58:31;6.67;;;1.50;;
11008;SDS011;5557;51.670;7.788;2022-07-29T08:00:59;1.87;;;1.60;;
11008;SDS011;5557;51.670;7.788;2022-07-29T08:03:26;1.77;;;1.07;;
11008;SDS011;5557;51.670;7.788;2022-07-29T08:05:53;2.33;;;1.30;;
11008;SDS011;5557;51.670;7.788;2022-07-29T08:08:21;8.50;;;1.50;;
11008;SDS011;5557;51.670;7.788;2022-07-29T08:10:48;10.57;;;2.17;;
11008;SDS011;5557;51.670;7.788;2022-07-29T08:13:19;1.63;;;1.53;;
11008;SDS011;5557;51.670;7.788;2022-07-29T08:15:47;1.53;;;1.00;;
11008;SDS011;5557;51.670;7.788;2022-07-29T08:18:24;3.20;;;1.43;;
11008;SDS011;5557;51.670;7.788;2022-07-29T08:20:52;1.60;;;1.27;;
11008;SDS011;5557;51.670;7.788;2022-07-29T08:23:19;3.40;;;1.40;;
11008;SDS011;5557;51.670;7.788;2022-07-29T08:25:46;2.20;;;1.27;;
11008;SDS011;5557;51.670;7.788;2022-07-29T08:28:16;3.03;;;1.20;;
11008;SDS011;5557;51.670;7.788;2022-07-29T08:30:43;4.07;;;1.10;;
11008;SDS011;5557;51.670;7.788;2022-07-29T08:33:10;3.38;;;1.15;;
11008;SDS011;5557;51.670;7.788;2022-07-29T08:35:40;3.57;;;1.30;;
11008;SDS011;5557;51.670;7.788;2022-07-29T08:38:07;2.80;;;0.90;;
11008;SDS011;5557;51.670;7.788;2022-07-29T08:40:34;5.17;;;1.43;;
11008;SDS011;5557;51.670;7.788;2022-07-29T08:43:07;9.50;;;1.83;;
11008;SDS011;5557;51.670;7.788;2022-07-29T08:45:41;2.50;;;1.07;;
11008;SDS011;5557;51.670;7.788;2022-07-29T08:48:14;3.40;;;1.00;;
11008;SDS011;5557;51.670;7.788;2022-07-29T08:50:43;4.40;;;1.10;;
11008;SDS011;5557;51.670;7.788;2022-07-29T08:53:12;1.87;;;1.30;;
11008;SDS011;5557;51.670;7.788;2022-07-29T08:55:45;3.53;;;1.37;;
11008;SDS011;5557;51.670;7.788;2022-07-29T08:58:13;2.40;;;1.37;;
11008;SDS011;5557;51.670;7.788;2022-07-29T09:00:42;5.10;;;1.30;;
11008;SDS011;5557;51.670;7.788;2022-07-29T09:03:12;8.68;;;1.35;;
11008;SDS011;5557;51.670;7.788;2022-07-29T09:05:42;4.82;;;1.15;;
11008;SDS011;5557;51.670;7.788;2022-07-29T09:08:13;2.38;;;1.88;;
11008;SDS011;5557;51.670;7.788;2022-07-29T09:10:44;5.38;;;1.42;;
11008;SDS011;5557;51.670;7.788;2022-07-29T09:13:11;3.15;;;1.15;;
11008;SDS011;5557;51.670;7.788;2022-07-29T09:15:38;5.10;;;1.52;;
11008;SDS011;5557;51.670;7.788;2022-07-29T09:18:05;13.27;;;2.35;;
11008;SDS011;5557;51.670;7.788;2022-07-29T09:20:32;4.95;;;1.35;;
11008;SDS011;5557;51.670;7.788;2022-07-29T09:23:17;3.15;;;1.40;;
11008;SDS011;5557;51.670;7.788;2022-07-29T09:25:49;3.20;;;1.60;;
11008;SDS011;5557;51.670;7.788;2022-07-29T09:28:17;10.45;;;1.00;;
11008;SDS011;5557;51.670;7.788;2022-07-29T09:30:51;3.22;;;1.17;;
11008;SDS011;5557;51.670;7.788;2022-07-29T09:33:20;2.83;;;1.45;;
11008;SDS011;5557;51.670;7.788;2022-07-29T09:36:07;1.40;;;1.00;;
11008;SDS011;5557;51.670;7.788;2022-07-29T09:38:35;29.85;;;1.27;;
11008;SDS011;5557;51.670;7.788;2022-07-29T09:41:05;2.53;;;0.90;;
11008;SDS011;5557;51.670;7.788;2022-07-29T09:43:34;1.75;;;1.02;;
11008;SDS011;5557;51.670;7.788;2022-07-29T09:46:11;4.43;;;1.27;;
11008;SDS011;5557;51.670;7.788;2022-07-29T09:48:38;1.00;;;0.90;;
11008;SDS011;5557;51.670;7.788;2022-07-29T09:51:15;6.40;;;1.00;;
11008;SDS011;5557;51.670;7.788;2022-07-29T09:54:24;1.63;;;1.20;;
11008;SDS011;5557;51.670;7.788;2022-07-29T09:56:54;1.25;;;0.77;;
11008;SDS011;5557;51.670;7.788;2022-07-29T09:59:22;1.65;;;1.00;;
11008;SDS011;5557;51.670;7.788;2022-07-29T10:01:52;3.92;;;1.60;;
11008;SDS011;5557;51.670;7.788;2022-07-29T10:04:20;4.35;;;1.63;;
11008;SDS011;5557;51.670;7.788;2022-07-29T10:07:00;2.75;;;1.65;;
11008;SDS011;5557;51.670;7.788;2022-07-29T10:09:31;11.10;;;1.10;;
11008;SDS011;5557;51.670;7.788;2022-07-29T10:12:16;3.38;;;1.25;;
11008;SDS011;5557;51.670;7.788;2022-07-29T10:14:43;4.47;;;1.23;;
11008;SDS011;5557;51.670;7.788;2022-07-29T10:17:10;4.60;;;1.48;;
11008;SDS011;5557;51.670;7.788;2022-07-29T10:19:38;11.40;;;1.30;;
11008;SDS011;5557;51.670;7.788;2022-07-29T10:22:06;8.83;;;1.63;;
11008;SDS011;5557;51.670;7.788;2022-07-29T10:24:35;1.87;;;1.37;;
11008;SDS011;5557;51.670;7.788;2022-07-29T10:27:04;12.40;;;1.27;;
11008;SDS011;5557;51.670;7.788;2022-07-29T10:29:33;2.20;;;1.40;;
11008;SDS011;5557;51.670;7.788;2022-07-29T10:35:14;6.40;;;1.20;;
11008;SDS011;5557;51.670;7.788;2022-07-29T10:38:20;1.40;;;1.20;;
11008;SDS011;5557;51.670;7.788;2022-07-29T10:44:19;2.33;;;1.20;;
11008;SDS011;5557;51.670;7.788;2022-07-29T10:46:50;4.50;;;1.03;;
11008;SDS011;5557;51.670;7.788;2022-07-29T10:49:19;5.30;;;1.57;;
11008;SDS011;5557;51.670;7.788;2022-07-29T10:52:00;3.50;;;1.67;;
11008;SDS011;5557;51.670;7.788;2022-07-29T10:54:39;7.50;;;1.57;;
11008;SDS011;5557;51.670;7.788;2022-07-29T10:57:30;3.00;;;1.53;;
11008;SDS011;5557;51.670;7.788;2022-07-29T11:00:28;7.80;;;1.87;;
11008;SDS011;5557;51.670;7.788;2022-07-29T11:02:56;8.53;;;1.43;;
11008;SDS011;5557;51.670;7.788;2022-07-29T11:05:24;2.57;;;1.40;;
11008;SDS011;5557;51.670;7.788;2022-07-29T11:08:18;7.73;;;1.70;;
11008;SDS011;5557;51.670;7.788;2022-07-29T11:14:16;6.63;;;1.80;;
11008;SDS011;5557;51.670;7.788;2022-07-29T11:16:58;11.27;;;1.70;;
11008;SDS011;5557;51.670;7.788;2022-07-29T11:19:32;3.87;;;1.73;;
11008;SDS011;5557;51.670;7.788;2022-07-29T11:22:00;6.60;;;1.70;;
11008;SDS011;5557;51.670;7.788;2022-07-29T11:24:28;13.83;;;2.17;;
11008;SDS011;5557;51.670;7.788;2022-07-29T11:27:10;11.77;;;1.50;;
11008;SDS011;5557;51.670;7.788;2022-07-29T11:29:57;5.80;;;1.43;;
11008;SDS011;5557;51.670;7.788;2022-07-29T11:32:38;5.90;;;1.60;;
11008;SDS011;5557;51.670;7.788;2022-07-29T11:35:17;3.40;;;1.60;;
11008;SDS011;5557;51.670;7.788;2022-07-29T11:44:05;7.00;;;1.13;;
11008;SDS011;5557;51.670;7.788;2022-07-29T11:46:47;4.40;;;2.03;;
11008;SDS011;5557;51.670;7.788;2022-07-29T11:49:33;6.87;;;2.90;;
11008;SDS011;5557;51.670;7.788;2022-07-29T11:52:02;7.43;;;2.77;;
11008;SDS011;5557;51.670;7.788;2022-07-29T11:54:31;5.43;;;2.10;;
11008;SDS011;5557;51.670;7.788;2022-07-29T11:57:19;6.40;;;2.17;;
11008;SDS011;5557;51.670;7.788;2022-07-29T11:59:47;6.77;;;2.23;;
11008;SDS011;5557;51.670;7.788;2022-07-29T12:02:16;6.90;;;2.17;;
11008;SDS011;5557;51.670;7.788;2022-07-29T12:05:03;6.10;;;2.20;;
11008;SDS011;5557;51.670;7.788;2022-07-29T12:07:50;3.30;;;2.13;;
11008;SDS011;5557;51.670;7.788;2022-07-29T12:10:18;2.10;;;2.00;;
11008;SDS011;5557;51.670;7.788;2022-07-29T12:12:56;2.83;;;1.87;;
11008;SDS011;5557;51.670;7.788;2022-07-29T12:15:23;4.33;;;2.00;;
11008;SDS011;5557;51.670;7.788;2022-07-29T12:18:12;3.53;;;2.10;;
11008;SDS011;5557;51.670;7.788;2022-07-29T12:20:43;14.40;;;2.00;;
11008;SDS011;5557;51.670;7.788;2022-07-29T12:23:11;2.80;;;1.80;;
11008;SDS011;5557;51.670;7.788;2022-07-29T12:25:41;5.83;;;2.40;;
11008;SDS011;5557;51.670;7.788;2022-07-29T12:28:15;2.50;;;2.30;;
11008;SDS011;5557;51.670;7.788;2022-07-29T12:30:52;6.50;;;2.83;;
11008;SDS011;5557;51.670;7.788;2022-07-29T12:33:20;8.03;;;2.93;;
11008;SDS011;5557;51.670;7.788;2022-07-29T12:35:53;6.77;;;2.90;;
11008;SDS011;5557;51.670;7.788;2022-07-29T12:38:31;2.13;;;1.93;;
11008;SDS011;5557;51.670;7.788;2022-07-29T12:41:01;4.00;;;2.23;;
11008;SDS011;5557;51.670;7.788;2022-07-29T12:43:29;11.97;;;2.77;;
11008;SDS011;5557;51.670;7.788;2022-07-29T12:45:56;8.50;;;2.20;;
11008;SDS011;5557;51.670;7.788;2022-07-29T12:48:37;12.20;;;2.50;;
11008;SDS011;5557;51.670;7.788;2022-07-29T12:51:05;2.67;;;2.30;;
11008;SDS011;5557;51.670;7.788;2022-07-29T12:53:35;6.40;;;2.10;;
11008;SDS011;5557;51.670;7.788;2022-07-29T12:56:02;10.90;;;3.57;;
11008;SDS011;5557;51.670;7.788;2022-07-29T12:58:51;15.03;;;3.60;;
11008;SDS011;5557;51.670;7.788;2022-07-29T13:01:19;2.97;;;2.40;;
11008;SDS011;5557;51.670;7.788;2022-07-29T13:03:51;12.90;;;2.90;;
11008;SDS011;5557;51.670;7.788;2022-07-29T13:06:30;7.73;;;2.50;;
11008;SDS011;5557;51.670;7.788;2022-07-29T13:09:03;10.30;;;2.80;;
11008;SDS011;5557;51.670;7.788;2022-07-29T13:11:43;3.93;;;2.20;;
11008;SDS011;5557;51.670;7.788;2022-07-29T13:14:28;4.10;;;2.43;;
11008;SDS011;5557;51.670;7.788;2022-07-29T13:17:00;5.27;;;1.70;;
11008;SDS011;5557;51.670;7.788;2022-07-29T13:19:36;9.50;;;2.50;;
11008;SDS011;5557;51.670;7.788;2022-07-29T13:22:09;5.50;;;2.07;;
11008;SDS011;5557;51.670;7.788;2022-07-29T13:24:53;6.87;;;2.37;;
11008;SDS011;5557;51.670;7.788;2022-07-29T13:27:23;11.23;;;2.10;;
11008;SDS011;5557;51.670;7.788;2022-07-29T13:29:52;4.60;;;2.07;;
11008;SDS011;5557;51.670;7.788;2022-07-29T13:32:20;5.13;;;2.30;;
11008;SDS011;5557;51.670;7.788;2022-07-29T13:34:54;3.63;;;2.20;;
11008;SDS011;5557;51.670;7.788;2022-07-29T13:37:23;13.87;;;2.23;;
11008;SDS011;5557;51.670;7.788;2022-07-29T13:39:50;2.83;;;1.57;;
11008;SDS011;5557;51.670;7.788;2022-07-29T13:42:20;6.10;;;1.73;;
11008;SDS011;5557;51.670;7.788;2022-07-29T13:44:47;4.30;;;2.47;;
11008;SDS011;5557;51.670;7.788;2022-07-29T13:47:17;2.40;;;1.87;;
11008;SDS011;5557;51.670;7.788;2022-07-29T13:49:44;4.67;;;2.47;;
11008;SDS011;5557;51.670;7.788;2022-07-29T13:52:11;4.67;;;2.13;;
11008;SDS011;5557;51.670;7.788;2022-07-29T13:54:39;9.03;;;2.00;;
11008;SDS011;5557;51.670;7.788;2022-07-29T13:57:08;3.27;;;2.67;;
11008;SDS011;5557;51.670;7.788;2022-07-29T13:59:37;6.57;;;2.60;;
11008;SDS011;5557;51.670;7.788;2022-07-29T14:02:08;4.63;;;2.30;;
11008;SDS011;5557;51.670;7.788;2022-07-29T14:04:36;2.50;;;2.30;;
11008;SDS011;5557;51.670;7.788;2022-07-29T14:07:05;8.13;;;2.10;;
11008;SDS011;5557;51.670;7.788;2022-07-29T14:09:33;5.77;;;2.80;;
11008;SDS011;5557;51.670;7.788;2022-07-29T14:12:07;2.23;;;2.00;;
11008;SDS011;5557;51.670;7.788;2022-07-29T14:14:34;2.60;;;2.40;;
11008;SDS011;5557;51.670;7.788;2022-07-29T14:17:03;6.50;;;3.07;;
11008;SDS011;5557;51.670;7.788;2022-07-29T14:19:33;6.03;;;2.53;;
11008;SDS011;5557;51.670;7.788;2022-07-29T14:22:05;4.00;;;2.50;;
11008;SDS011;5557;51.670;7.788;2022-07-29T14:24:34;5.27;;;2.70;;
11008;SDS011;5557;51.670;7.788;2022-07-29T14:27:02;6.10;;;2.50;;
11008;SDS011;5557;51.670;7.788;2022-07-29T14:29:30;3.83;;;2.70;;
11008;SDS011;5557;51.670;7.788;2022-07-29T14:32:06;6.10;;;3.20;;
11008;SDS011;5557;51.670;7.788;2022-07-29T14:34:35;3.13;;;2.30;;
11008;SDS011;5557;51.670;7.788;2022-07-29T14:37:03;3.40;;;2.60;;
11008;SDS011;5557;51.670;7.788;2022-07-29T14:39:41;2.80;;;2.50;;
11008;SDS011;5557;51.670;7.788;2022-07-29T14:42:09;3.27;;;2.83;;
11008;SDS011;5557;51.670;7.788;2022-07-29T14:44:38;5.67;;;2.80;;
11008;SDS011;5557;51.670;7.788;2022-07-29T14:47:06;3.93;;;2.60;;
11008;SDS011;5557;51.670;7.788;2022-07-29T14:49:33;7.43;;;2.80;;
11008;SDS011;5557;51.670;7.788;2022-07-29T14:52:01;9.77;;;3.40;;
11008;SDS011;5557;51.670;7.788;2022-07-29T14:54:29;6.00;;;3.60;;
11008;SDS011;5557;51.670;7.788;2022-07-29T14:56:56;4.93;;;3.20;;
11008;SDS011;5557;51.670;7.788;2022-07-29T14:59:26;4.53;;;3.30;;
11008;SDS011;5557;51.670;7.788;2022-07-29T15:01:53;3.60;;;3.27;;
11008;SDS011;5557;51.670;7.788;2022-07-29T15:04:20;6.30;;;3.40;;
11008;SDS011;5557;51.670;7.788;2022-07-29T15:06:47;12.17;;;2.60;;
11008;SDS011;5557;51.670;7.788;2022-07-29T15:09:14;6.20;;;3.10;;
11008;SDS011;5557;51.670;7.788;2022-07-29T15:11:41;2.50;;;2.30;;
11008;SDS011;5557;51.670;7.788;2022-07-29T15:14:08;4.27;;;2.80;;
11008;SDS011;5557;51.670;7.788;2022-07-29T15:16:36;4.90;;;3.00;;
11008;SDS011;5557;51.670;7.788;2022-07-29T15:19:08;3.97;;;2.60;;
11008;SDS011;5557;51.670;7.788;2022-07-29T15:21:36;6.20;;;2.90;;
11008;SDS011;5557;51.670;7.788;2022-07-29T15:24:14;6.97;;;3.40;;
11008;SDS011;5557;51.670;7.788;2022-07-29T15:26:42;10.90;;;2.60;;
11008;SDS011;5557;51.670;7.788;2022-07-29T15:29:10;4.53;;;3.37;;
11008;SDS011;5557;51.670;7.788;2022-07-29T15:31:37;3.17;;;2.90;;
11008;SDS011;5557;51.670;7.788;2022-07-29T15:34:05;7.03;;;2.90;;
11008;SDS011;5557;51.670;7.788;2022-07-29T15:36:33;2.73;;;2.53;;
11008;SDS011;5557;51.670;7.788;2022-07-29T15:39:17;4.73;;;2.50;;
11008;SDS011;5557;51.670;7.788;2022-07-29T15:41:45;7.33;;;2.60;;
11008;SDS011;5557;51.670;7.788;2022-07-29T15:44:12;9.03;;;2.60;;
11008;SDS011;5557;51.670;7.788;2022-07-29T15:46:39;3.87;;;2.47;;
11008;SDS011;5557;51.670;7.788;2022-07-29T15:49:25;9.50;;;2.97;;